sensor_id;sensor_type;location;lat;lon;timestamp;P1;durP1;ratioP1;P2;durP2;ratioP2
71456;SDS011;59263;48.160;11.752;2024-03-08T00:02:13;18.13;;;6.10;;
71456;SDS011;59263;48.160;11.752;2024-03-08T00:04:38;14.67;;;5.80;;
71456;SDS011;59263;48.160;11.752;2024-03-08T00:07:04;14.77;;;5.40;;
71456;SDS011;59263;48.160;11.752;2024-03-08T00:09:29;15.77;;;5.50;;
71456;SDS011;59263;48.160;11.752;2024-03-08T00:11:55;14.23;;;5.35;;
71456;SDS011;59263;48.160;11.752;2024-03-08T00:14:21;15.90;;;5.73;;
71456;SDS011;59263;48.160;11.752;2024-03-08T00:16:46;18.20;;;7.05;;
71456;SDS011;59263;48.160;11.752;2024-03-08T00:19:12;15.60;;;6.15;;
71456;SDS011;59263;48.160;11.752;2024-03-08T00:21:37;16.23;;;5.50;;
71456;SDS011;59263;48.160;11.752;2024-03-08T00:24:02;19.23;;;6.53;;
71456;SDS011;59263;48.160;11.752;2024-03-08T00:26:28;16.10;;;6.03;;
71456;SDS011;59263;48.160;11.752;2024-03-08T00:28:54;13.17;;;5.20;;
71456;SDS011;59263;48.160;11.752;2024-03-08T00:31:20;16.45;;;6.47;;
71456;SDS011;59263;48.160;11.752;2024-03-08T00:33:45;18.17;;;7.30;;
71456;SDS011;59263;48.160;11.752;2024-03-08T00:36:10;15.37;;;5.80;;
71456;SDS011;59263;48.160;11.752;2024-03-08T00:38:36;15.83;;;5.73;;
71456;SDS011;59263;48.160;11.752;2024-03-08T00:41:01;17.23;;;6.30;;
71456;SDS011;59263;48.160;11.752;2024-03-08T00:43:27;18.33;;;6.47;;
71456;SDS011;59263;48.160;11.752;2024-03-08T00:45:52;19.50;;;6.17;;
71456;SDS011;59263;48.160;11.752;2024-03-08T00:48:17;16.17;;;6.03;;
71456;SDS011;59263;48.160;11.752;2024-03-08T00:50:43;17.10;;;5.70;;
71456;SDS011;59263;48.160;11.752;2024-03-08T00:53:11;16.67;;;5.87;;
71456;SDS011;59263;48.160;11.752;2024-03-08T00:55:36;16.75;;;5.93;;
71456;SDS011;59263;48.160;11.752;2024-03-08T00:58:01;20.00;;;6.23;;
71456;SDS011;59263;48.160;11.752;2024-03-08T01:00:26;16.30;;;5.90;;
71456;SDS011;59263;48.160;11.752;2024-03-08T01:02:52;17.88;;;5.68;;
71456;SDS011;59263;48.160;11.752;2024-03-08T01:05:18;17.80;;;6.47;;
71456;SDS011;59263;48.160;11.752;2024-03-08T01:07:44;13.82;;;5.63;;
71456;SDS011;59263;48.160;11.752;2024-03-08T01:10:11;17.50;;;5.80;;
71456;SDS011;59263;48.160;11.752;2024-03-08T01:12:37;17.75;;;6.80;;
71456;SDS011;59263;48.160;11.752;2024-03-08T01:15:02;18.27;;;6.90;;
71456;SDS011;59263;48.160;11.752;2024-03-08T01:17:28;17.35;;;6.03;;
71456;SDS011;59263;48.160;11.752;2024-03-08T01:19:53;18.27;;;6.27;;
71456;SDS011;59263;48.160;11.752;2024-03-08T01:22:19;16.80;;;5.93;;
71456;SDS011;59263;48.160;11.752;2024-03-08T01:24:44;15.43;;;5.30;;
71456;SDS011;59263;48.160;11.752;2024-03-08T01:27:09;18.17;;;5.80;;
71456;SDS011;59263;48.160;11.752;2024-03-08T01:29:34;19.67;;;6.97;;
71456;SDS011;59263;48.160;11.752;2024-03-08T01:32:00;19.43;;;6.80;;
71456;SDS011;59263;48.160;11.752;2024-03-08T01:34:26;17.98;;;6.22;;
71456;SDS011;59263;48.160;11.752;2024-03-08T01:36:53;18.58;;;5.82;;
71456;SDS011;59263;48.160;11.752;2024-03-08T01:39:20;18.52;;;6.63;;
71456;SDS011;59263;48.160;11.752;2024-03-08T01:41:47;18.00;;;6.77;;
71456;SDS011;59263;48.160;11.752;2024-03-08T01:44:12;21.02;;;6.45;;
71456;SDS011;59263;48.160;11.752;2024-03-08T01:46:40;19.50;;;5.90;;
71456;SDS011;59263;48.160;11.752;2024-03-08T01:49:06;17.73;;;6.22;;
71456;SDS011;59263;48.160;11.752;2024-03-08T01:51:31;20.08;;;7.30;;
71456;SDS011;59263;48.160;11.752;2024-03-08T01:53:57;17.77;;;5.83;;
71456;SDS011;59263;48.160;11.752;2024-03-08T01:56:23;16.52;;;6.40;;
71456;SDS011;59263;48.160;11.752;2024-03-08T01:58:48;19.08;;;7.32;;
71456;SDS011;59263;48.160;11.752;2024-03-08T02:01:14;13.43;;;5.67;;
71456;SDS011;59263;48.160;11.752;2024-03-08T02:03:40;21.73;;;6.80;;
71456;SDS011;59263;48.160;11.752;2024-03-08T02:06:05;21.50;;;6.63;;
71456;SDS011;59263;48.160;11.752;2024-03-08T02:08:33;21.92;;;7.10;;
71456;SDS011;59263;48.160;11.752;2024-03-08T02:10:59;21.38;;;7.40;;
71456;SDS011;59263;48.160;11.752;2024-03-08T02:13:25;17.43;;;6.77;;
71456;SDS011;59263;48.160;11.752;2024-03-08T02:15:57;19.80;;;7.13;;
71456;SDS011;59263;48.160;11.752;2024-03-08T02:18:24;17.80;;;6.28;;
71456;SDS011;59263;48.160;11.752;2024-03-08T02:20:51;19.87;;;6.70;;
71456;SDS011;59263;48.160;11.752;2024-03-08T02:23:17;18.40;;;6.70;;
71456;SDS011;59263;48.160;11.752;2024-03-08T02:25:42;16.53;;;6.83;;
71456;SDS011;59263;48.160;11.752;2024-03-08T02:28:11;20.53;;;7.10;;
71456;SDS011;59263;48.160;11.752;2024-03-08T02:30:36;18.42;;;6.60;;
71456;SDS011;59263;48.160;11.752;2024-03-08T02:33:01;19.50;;;6.80;;
71456;SDS011;59263;48.160;11.752;2024-03-08T02:35:27;17.17;;;6.00;;
71456;SDS011;59263;48.160;11.752;2024-03-08T02:37:52;20.60;;;7.43;;
71456;SDS011;59263;48.160;11.752;2024-03-08T02:40:18;18.30;;;6.87;;
71456;SDS011;59263;48.160;11.752;2024-03-08T02:42:43;18.10;;;7.10;;
71456;SDS011;59263;48.160;11.752;2024-03-08T02:45:08;19.73;;;6.57;;
71456;SDS011;59263;48.160;11.752;2024-03-08T02:47:35;18.33;;;7.50;;
71456;SDS011;59263;48.160;11.752;2024-03-08T02:50:00;20.00;;;7.23;;
71456;SDS011;59263;48.160;11.752;2024-03-08T02:52:26;20.73;;;7.18;;
71456;SDS011;59263;48.160;11.752;2024-03-08T02:54:52;19.00;;;7.30;;
71456;SDS011;59263;48.160;11.752;2024-03-08T02:57:17;19.77;;;6.93;;
71456;SDS011;59263;48.160;11.752;2024-03-08T02:59:43;14.15;;;5.40;;
71456;SDS011;59263;48.160;11.752;2024-03-08T03:02:08;20.10;;;6.93;;
71456;SDS011;59263;48.160;11.752;2024-03-08T03:04:35;19.92;;;6.90;;
71456;SDS011;59263;48.160;11.752;2024-03-08T03:07:00;18.83;;;7.23;;
71456;SDS011;59263;48.160;11.752;2024-03-08T03:09:26;19.33;;;7.03;;
71456;SDS011;59263;48.160;11.752;2024-03-08T03:11:53;18.45;;;6.88;;
71456;SDS011;59263;48.160;11.752;2024-03-08T03:14:19;17.52;;;6.68;;
71456;SDS011;59263;48.160;11.752;2024-03-08T03:16:44;19.53;;;7.80;;
71456;SDS011;59263;48.160;11.752;2024-03-08T03:19:11;18.63;;;7.25;;
71456;SDS011;59263;48.160;11.752;2024-03-08T03:21:36;20.17;;;6.67;;
71456;SDS011;59263;48.160;11.752;2024-03-08T03:24:03;21.58;;;6.95;;
71456;SDS011;59263;48.160;11.752;2024-03-08T03:26:29;19.53;;;6.70;;
71456;SDS011;59263;48.160;11.752;2024-03-08T03:28:55;21.48;;;7.30;;
71456;SDS011;59263;48.160;11.752;2024-03-08T03:31:20;22.10;;;6.90;;
71456;SDS011;59263;48.160;11.752;2024-03-08T03:33:48;19.83;;;7.93;;
71456;SDS011;59263;48.160;11.752;2024-03-08T03:36:16;21.33;;;7.72;;
71456;SDS011;59263;48.160;11.752;2024-03-08T03:38:41;21.43;;;7.37;;
71456;SDS011;59263;48.160;11.752;2024-03-08T03:41:07;22.37;;;7.00;;
71456;SDS011;59263;48.160;11.752;2024-03-08T03:43:35;20.20;;;6.57;;
71456;SDS011;59263;48.160;11.752;2024-03-08T03:46:05;18.73;;;7.72;;
71456;SDS011;59263;48.160;11.752;2024-03-08T03:48:30;19.02;;;7.07;;
71456;SDS011;59263;48.160;11.752;2024-03-08T03:50:57;22.00;;;7.43;;
71456;SDS011;59263;48.160;11.752;2024-03-08T03:53:22;20.37;;;7.77;;
71456;SDS011;59263;48.160;11.752;2024-03-08T03:55:47;19.67;;;7.33;;
71456;SDS011;59263;48.160;11.752;2024-03-08T03:58:12;22.93;;;7.77;;
71456;SDS011;59263;48.160;11.752;2024-03-08T04:00:38;19.73;;;7.40;;
71456;SDS011;59263;48.160;11.752;2024-03-08T04:03:03;19.20;;;7.43;;
71456;SDS011;59263;48.160;11.752;2024-03-08T04:05:29;22.65;;;8.20;;
71456;SDS011;59263;48.160;11.752;2024-03-08T04:07:54;22.15;;;8.18;;
71456;SDS011;59263;48.160;11.752;2024-03-08T04:10:19;21.13;;;7.83;;
71456;SDS011;59263;48.160;11.752;2024-03-08T04:12:45;23.47;;;8.67;;
71456;SDS011;59263;48.160;11.752;2024-03-08T04:15:10;20.27;;;7.83;;
71456;SDS011;59263;48.160;11.752;2024-03-08T04:17:36;20.20;;;7.80;;
71456;SDS011;59263;48.160;11.752;2024-03-08T04:20:02;26.23;;;9.07;;
71456;SDS011;59263;48.160;11.752;2024-03-08T04:22:33;20.33;;;8.02;;
71456;SDS011;59263;48.160;11.752;2024-03-08T04:25:00;19.67;;;8.55;;
71456;SDS011;59263;48.160;11.752;2024-03-08T04:27:25;23.00;;;8.87;;
71456;SDS011;59263;48.160;11.752;2024-03-08T04:29:50;25.03;;;9.27;;
71456;SDS011;59263;48.160;11.752;2024-03-08T04:32:16;24.97;;;8.33;;
71456;SDS011;59263;48.160;11.752;2024-03-08T04:34:42;21.70;;;9.98;;
71456;SDS011;59263;48.160;11.752;2024-03-08T04:37:07;22.60;;;8.57;;
71456;SDS011;59263;48.160;11.752;2024-03-08T04:39:35;22.40;;;7.97;;
71456;SDS011;59263;48.160;11.752;2024-03-08T04:42:02;23.73;;;9.00;;
71456;SDS011;59263;48.160;11.752;2024-03-08T04:44:31;26.42;;;9.70;;
71456;SDS011;59263;48.160;11.752;2024-03-08T04:46:58;22.67;;;9.90;;
71456;SDS011;59263;48.160;11.752;2024-03-08T04:49:23;22.30;;;8.60;;
71456;SDS011;59263;48.160;11.752;2024-03-08T04:51:49;22.60;;;9.00;;
71456;SDS011;59263;48.160;11.752;2024-03-08T04:54:14;26.17;;;9.43;;
71456;SDS011;59263;48.160;11.752;2024-03-08T04:56:39;25.90;;;9.07;;
71456;SDS011;59263;48.160;11.752;2024-03-08T04:59:05;25.20;;;9.50;;
71456;SDS011;59263;48.160;11.752;2024-03-08T05:01:33;21.90;;;9.25;;
71456;SDS011;59263;48.160;11.752;2024-03-08T05:03:58;23.63;;;9.20;;
71456;SDS011;59263;48.160;11.752;2024-03-08T05:06:23;23.33;;;9.27;;
71456;SDS011;59263;48.160;11.752;2024-03-08T05:08:48;29.93;;;9.63;;
71456;SDS011;59263;48.160;11.752;2024-03-08T05:11:14;25.17;;;9.17;;
71456;SDS011;59263;48.160;11.752;2024-03-08T05:13:39;23.03;;;9.40;;
71456;SDS011;59263;48.160;11.752;2024-03-08T05:16:05;31.67;;;9.90;;
71456;SDS011;59263;48.160;11.752;2024-03-08T05:18:32;26.30;;;9.77;;
71456;SDS011;59263;48.160;11.752;2024-03-08T05:20:58;29.48;;;10.43;;
71456;SDS011;59263;48.160;11.752;2024-03-08T05:23:23;24.40;;;9.93;;
71456;SDS011;59263;48.160;11.752;2024-03-08T05:25:48;26.30;;;10.57;;
71456;SDS011;59263;48.160;11.752;2024-03-08T05:28:13;26.33;;;9.83;;
71456;SDS011;59263;48.160;11.752;2024-03-08T05:30:39;25.83;;;9.43;;
71456;SDS011;59263;48.160;11.752;2024-03-08T05:33:04;28.23;;;9.73;;
71456;SDS011;59263;48.160;11.752;2024-03-08T05:35:29;27.87;;;9.97;;
71456;SDS011;59263;48.160;11.752;2024-03-08T05:37:55;26.80;;;10.50;;
71456;SDS011;59263;48.160;11.752;2024-03-08T05:40:20;33.57;;;11.13;;
71456;SDS011;59263;48.160;11.752;2024-03-08T05:42:45;23.47;;;9.07;;
71456;SDS011;59263;48.160;11.752;2024-03-08T05:45:11;27.23;;;10.35;;
71456;SDS011;59263;48.160;11.752;2024-03-08T05:47:36;32.20;;;10.43;;
71456;SDS011;59263;48.160;11.752;2024-03-08T05:50:04;33.78;;;11.18;;
71456;SDS011;59263;48.160;11.752;2024-03-08T05:52:29;30.57;;;10.50;;
71456;SDS011;59263;48.160;11.752;2024-03-08T05:54:54;29.00;;;11.13;;
71456;SDS011;59263;48.160;11.752;2024-03-08T05:57:20;25.20;;;10.60;;
71456;SDS011;59263;48.160;11.752;2024-03-08T05:59:47;31.02;;;11.00;;
71456;SDS011;59263;48.160;11.752;2024-03-08T06:02:13;32.97;;;10.00;;
71456;SDS011;59263;48.160;11.752;2024-03-08T06:04:41;27.85;;;10.70;;
71456;SDS011;59263;48.160;11.752;2024-03-08T06:07:07;27.67;;;10.85;;
71456;SDS011;59263;48.160;11.752;2024-03-08T06:09:37;26.33;;;10.73;;
71456;SDS011;59263;48.160;11.752;2024-03-08T06:12:02;35.53;;;10.33;;
71456;SDS011;59263;48.160;11.752;2024-03-08T06:14:29;27.05;;;10.90;;
71456;SDS011;59263;48.160;11.752;2024-03-08T06:16:55;27.37;;;10.30;;
71456;SDS011;59263;48.160;11.752;2024-03-08T06:19:20;33.53;;;11.23;;
71456;SDS011;59263;48.160;11.752;2024-03-08T06:21:46;29.97;;;10.10;;
71456;SDS011;59263;48.160;11.752;2024-03-08T06:24:11;30.47;;;9.83;;
71456;SDS011;59263;48.160;11.752;2024-03-08T06:26:37;34.30;;;10.95;;
71456;SDS011;59263;48.160;11.752;2024-03-08T06:29:02;32.43;;;11.20;;
71456;SDS011;59263;48.160;11.752;2024-03-08T06:31:31;29.63;;;10.82;;
71456;SDS011;59263;48.160;11.752;2024-03-08T06:33:57;35.53;;;11.73;;
71456;SDS011;59263;48.160;11.752;2024-03-08T06:36:23;32.80;;;11.98;;
71456;SDS011;59263;48.160;11.752;2024-03-08T06:38:48;30.83;;;10.87;;
71456;SDS011;59263;48.160;11.752;2024-03-08T06:41:14;33.88;;;11.57;;
71456;SDS011;59263;48.160;11.752;2024-03-08T06:43:45;33.85;;;12.25;;
71456;SDS011;59263;48.160;11.752;2024-03-08T06:46:11;29.63;;;11.03;;
71456;SDS011;59263;48.160;11.752;2024-03-08T06:48:40;39.53;;;12.88;;
71456;SDS011;59263;48.160;11.752;2024-03-08T06:51:06;37.67;;;12.73;;
71456;SDS011;59263;48.160;11.752;2024-03-08T06:53:31;31.60;;;12.23;;
71456;SDS011;59263;48.160;11.752;2024-03-08T06:55:56;35.63;;;12.05;;
71456;SDS011;59263;48.160;11.752;2024-03-08T06:58:22;29.02;;;12.57;;
71456;SDS011;59263;48.160;11.752;2024-03-08T07:00:47;32.50;;;11.43;;
71456;SDS011;59263;48.160;11.752;2024-03-08T07:03:17;31.30;;;11.43;;
71456;SDS011;59263;48.160;11.752;2024-03-08T07:05:42;46.90;;;17.57;;
71456;SDS011;59263;48.160;11.752;2024-03-08T07:08:07;55.60;;;19.17;;
71456;SDS011;59263;48.160;11.752;2024-03-08T07:10:33;48.60;;;16.77;;
71456;SDS011;59263;48.160;11.752;2024-03-08T07:12:58;39.95;;;13.68;;
71456;SDS011;59263;48.160;11.752;2024-03-08T07:15:25;33.80;;;12.90;;
71456;SDS011;59263;48.160;11.752;2024-03-08T07:17:51;37.15;;;12.55;;
71456;SDS011;59263;48.160;11.752;2024-03-08T07:20:17;30.20;;;10.75;;
71456;SDS011;59263;48.160;11.752;2024-03-08T07:22:46;26.52;;;10.70;;
71456;SDS011;59263;48.160;11.752;2024-03-08T07:25:12;29.23;;;9.77;;
71456;SDS011;59263;48.160;11.752;2024-03-08T07:27:53;31.00;;;10.05;;
71456;SDS011;59263;48.160;11.752;2024-03-08T07:30:20;28.37;;;10.17;;
71456;SDS011;59263;48.160;11.752;2024-03-08T07:33:04;28.42;;;10.68;;
71456;SDS011;59263;48.160;11.752;2024-03-08T07:35:29;28.27;;;10.68;;
71456;SDS011;59263;48.160;11.752;2024-03-08T07:37:56;27.02;;;9.27;;
71456;SDS011;59263;48.160;11.752;2024-03-08T07:40:21;27.20;;;9.03;;
71456;SDS011;59263;48.160;11.752;2024-03-08T07:42:48;24.15;;;9.10;;
71456;SDS011;59263;48.160;11.752;2024-03-08T07:45:13;24.87;;;7.63;;
71456;SDS011;59263;48.160;11.752;2024-03-08T07:47:38;25.37;;;8.90;;
71456;SDS011;59263;48.160;11.752;2024-03-08T07:50:05;28.75;;;9.77;;
71456;SDS011;59263;48.160;11.752;2024-03-08T07:52:33;24.45;;;9.40;;
71456;SDS011;59263;48.160;11.752;2024-03-08T07:54:58;29.17;;;10.17;;
71456;SDS011;59263;48.160;11.752;2024-03-08T07:57:24;25.10;;;8.93;;
71456;SDS011;59263;48.160;11.752;2024-03-08T07:59:50;28.27;;;10.18;;
71456;SDS011;59263;48.160;11.752;2024-03-08T08:02:15;24.20;;;8.27;;
71456;SDS011;59263;48.160;11.752;2024-03-08T08:04:40;30.30;;;10.10;;
71456;SDS011;59263;48.160;11.752;2024-03-08T08:07:06;25.65;;;10.20;;
71456;SDS011;59263;48.160;11.752;2024-03-08T08:09:32;25.58;;;8.38;;
71456;SDS011;59263;48.160;11.752;2024-03-08T08:12:00;24.45;;;7.93;;
71456;SDS011;59263;48.160;11.752;2024-03-08T08:14:26;29.27;;;7.90;;
71456;SDS011;59263;48.160;11.752;2024-03-08T08:16:52;21.83;;;8.47;;
71456;SDS011;59263;48.160;11.752;2024-03-08T08:19:18;22.23;;;8.03;;
71456;SDS011;59263;48.160;11.752;2024-03-08T08:21:43;29.00;;;9.02;;
71456;SDS011;59263;48.160;11.752;2024-03-08T08:24:08;28.47;;;9.83;;
71456;SDS011;59263;48.160;11.752;2024-03-08T08:26:34;25.70;;;8.33;;
71456;SDS011;59263;48.160;11.752;2024-03-08T08:29:01;23.15;;;8.15;;
71456;SDS011;59263;48.160;11.752;2024-03-08T08:31:26;22.80;;;8.03;;
71456;SDS011;59263;48.160;11.752;2024-03-08T08:33:51;23.63;;;8.60;;
71456;SDS011;59263;48.160;11.752;2024-03-08T08:36:22;23.08;;;8.20;;
71456;SDS011;59263;48.160;11.752;2024-03-08T08:38:48;25.20;;;7.93;;
71456;SDS011;59263;48.160;11.752;2024-03-08T08:41:13;23.80;;;8.70;;
71456;SDS011;59263;48.160;11.752;2024-03-08T08:43:39;25.83;;;8.30;;
71456;SDS011;59263;48.160;11.752;2024-03-08T08:46:04;28.57;;;10.67;;
71456;SDS011;59263;48.160;11.752;2024-03-08T08:48:29;25.65;;;9.38;;
71456;SDS011;59263;48.160;11.752;2024-03-08T08:50:55;22.20;;;8.40;;
71456;SDS011;59263;48.160;11.752;2024-03-08T08:53:21;24.53;;;8.10;;
71456;SDS011;59263;48.160;11.752;2024-03-08T08:55:47;22.30;;;8.40;;
71456;SDS011;59263;48.160;11.752;2024-03-08T08:58:12;25.67;;;7.50;;
71456;SDS011;59263;48.160;11.752;2024-03-08T09:00:39;23.17;;;8.50;;
71456;SDS011;59263;48.160;11.752;2024-03-08T09:03:04;23.20;;;8.70;;
71456;SDS011;59263;48.160;11.752;2024-03-08T09:05:31;22.15;;;8.00;;
71456;SDS011;59263;48.160;11.752;2024-03-08T09:07:57;22.90;;;8.70;;
71456;SDS011;59263;48.160;11.752;2024-03-08T09:10:22;21.83;;;8.10;;
71456;SDS011;59263;48.160;11.752;2024-03-08T09:12:48;22.77;;;8.17;;
71456;SDS011;59263;48.160;11.752;2024-03-08T09:15:13;26.83;;;9.02;;
71456;SDS011;59263;48.160;11.752;2024-03-08T09:17:39;23.83;;;8.90;;
71456;SDS011;59263;48.160;11.752;2024-03-08T09:20:05;20.33;;;7.53;;
71456;SDS011;59263;48.160;11.752;2024-03-08T09:22:31;24.55;;;8.45;;
71456;SDS011;59263;48.160;11.752;2024-03-08T09:24:57;22.93;;;7.23;;
71456;SDS011;59263;48.160;11.752;2024-03-08T09:27:22;21.23;;;7.13;;
71456;SDS011;59263;48.160;11.752;2024-03-08T09:29:47;21.47;;;7.47;;
71456;SDS011;59263;48.160;11.752;2024-03-08T09:32:13;28.08;;;8.48;;
71456;SDS011;59263;48.160;11.752;2024-03-08T09:34:38;23.27;;;8.43;;
71456;SDS011;59263;48.160;11.752;2024-03-08T09:37:05;23.27;;;8.90;;
71456;SDS011;59263;48.160;11.752;2024-03-08T09:39:30;20.17;;;8.00;;
71456;SDS011;59263;48.160;11.752;2024-03-08T09:41:56;24.63;;;8.00;;
71456;SDS011;59263;48.160;11.752;2024-03-08T09:44:22;23.90;;;8.23;;
71456;SDS011;59263;48.160;11.752;2024-03-08T09:46:48;20.23;;;7.45;;
71456;SDS011;59263;48.160;11.752;2024-03-08T09:49:16;18.38;;;7.18;;
71456;SDS011;59263;48.160;11.752;2024-03-08T09:51:41;25.10;;;8.40;;
71456;SDS011;59263;48.160;11.752;2024-03-08T09:54:07;21.80;;;8.40;;
71456;SDS011;59263;48.160;11.752;2024-03-08T09:56:33;24.30;;;9.15;;
71456;SDS011;59263;48.160;11.752;2024-03-08T09:58:59;20.58;;;7.72;;
71456;SDS011;59263;48.160;11.752;2024-03-08T10:01:37;21.20;;;8.20;;
71456;SDS011;59263;48.160;11.752;2024-03-08T10:04:04;22.75;;;8.05;;
71456;SDS011;59263;48.160;11.752;2024-03-08T10:06:29;23.80;;;8.83;;
71456;SDS011;59263;48.160;11.752;2024-03-08T10:08:54;22.07;;;8.80;;
71456;SDS011;59263;48.160;11.752;2024-03-08T10:11:20;24.23;;;8.80;;
71456;SDS011;59263;48.160;11.752;2024-03-08T10:13:49;22.52;;;8.25;;
71456;SDS011;59263;48.160;11.752;2024-03-08T10:16:15;21.75;;;7.80;;
71456;SDS011;59263;48.160;11.752;2024-03-08T10:18:42;20.80;;;7.83;;
71456;SDS011;59263;48.160;11.752;2024-03-08T10:21:07;20.17;;;7.90;;
71456;SDS011;59263;48.160;11.752;2024-03-08T10:23:35;21.87;;;8.20;;
71456;SDS011;59263;48.160;11.752;2024-03-08T10:26:13;25.20;;;8.88;;
71456;SDS011;59263;48.160;11.752;2024-03-08T10:28:46;20.75;;;7.93;;
71456;SDS011;59263;48.160;11.752;2024-03-08T10:31:14;20.95;;;8.13;;
71456;SDS011;59263;48.160;11.752;2024-03-08T10:33:40;21.75;;;8.60;;
71456;SDS011;59263;48.160;11.752;2024-03-08T10:36:09;24.33;;;8.55;;
71456;SDS011;59263;48.160;11.752;2024-03-08T10:38:35;19.63;;;8.18;;
71456;SDS011;59263;48.160;11.752;2024-03-08T10:41:01;20.00;;;7.90;;
71456;SDS011;59263;48.160;11.752;2024-03-08T10:43:26;19.70;;;7.68;;
71456;SDS011;59263;48.160;11.752;2024-03-08T10:46:03;21.60;;;7.60;;
71456;SDS011;59263;48.160;11.752;2024-03-08T10:48:31;20.40;;;7.77;;
71456;SDS011;59263;48.160;11.752;2024-03-08T10:50:57;22.88;;;9.00;;
71456;SDS011;59263;48.160;11.752;2024-03-08T10:53:22;21.88;;;8.82;;
71456;SDS011;59263;48.160;11.752;2024-03-08T10:55:49;21.35;;;7.30;;
71456;SDS011;59263;48.160;11.752;2024-03-08T10:58:14;19.98;;;6.93;;
71456;SDS011;59263;48.160;11.752;2024-03-08T11:00:40;21.58;;;7.93;;
71456;SDS011;59263;48.160;11.752;2024-03-08T11:03:06;20.77;;;7.27;;
71456;SDS011;59263;48.160;11.752;2024-03-08T11:05:32;19.47;;;7.47;;
71456;SDS011;59263;48.160;11.752;2024-03-08T11:08:01;19.35;;;6.85;;
71456;SDS011;59263;48.160;11.752;2024-03-08T11:10:26;22.02;;;8.52;;
71456;SDS011;59263;48.160;11.752;2024-03-08T11:12:51;20.10;;;7.83;;
71456;SDS011;59263;48.160;11.752;2024-03-08T11:15:17;22.90;;;7.77;;
71456;SDS011;59263;48.160;11.752;2024-03-08T11:17:48;20.95;;;7.88;;
71456;SDS011;59263;48.160;11.752;2024-03-08T11:20:15;21.90;;;8.02;;
71456;SDS011;59263;48.160;11.752;2024-03-08T11:22:51;17.90;;;7.63;;
71456;SDS011;59263;48.160;11.752;2024-03-08T11:25:36;19.83;;;7.18;;
71456;SDS011;59263;48.160;11.752;2024-03-08T11:28:18;19.52;;;7.50;;
71456;SDS011;59263;48.160;11.752;2024-03-08T11:31:22;17.27;;;6.65;;
71456;SDS011;59263;48.160;11.752;2024-03-08T11:33:34;21.83;;;7.70;;
71456;SDS011;59263;48.160;11.752;2024-03-08T11:36:13;19.73;;;6.87;;
71456;SDS011;59263;48.160;11.752;2024-03-08T11:38:42;19.40;;;8.30;;
71456;SDS011;59263;48.160;11.752;2024-03-08T11:41:09;21.02;;;8.35;;
71456;SDS011;59263;48.160;11.752;2024-03-08T11:43:37;18.20;;;7.22;;
71456;SDS011;59263;48.160;11.752;2024-03-08T11:46:13;26.20;;;7.67;;
71456;SDS011;59263;48.160;11.752;2024-03-08T11:48:42;21.55;;;8.45;;
71456;SDS011;59263;48.160;11.752;2024-03-08T11:51:08;19.48;;;7.50;;
71456;SDS011;59263;48.160;11.752;2024-03-08T11:53:34;21.88;;;7.85;;
71456;SDS011;59263;48.160;11.752;2024-03-08T11:58:32;19.60;;;8.02;;
71456;SDS011;59263;48.160;11.752;2024-03-08T12:01:04;17.83;;;7.07;;
71456;SDS011;59263;48.160;11.752;2024-03-08T12:03:30;18.52;;;7.55;;
71456;SDS011;59263;48.160;11.752;2024-03-08T12:05:59;21.90;;;7.80;;
71456;SDS011;59263;48.160;11.752;2024-03-08T12:08:24;19.17;;;6.68;;
71456;SDS011;59263;48.160;11.752;2024-03-08T12:10:53;19.93;;;7.70;;
71456;SDS011;59263;48.160;11.752;2024-03-08T12:13:20;19.45;;;7.38;;
71456;SDS011;59263;48.160;11.752;2024-03-08T12:15:46;19.57;;;8.23;;
71456;SDS011;59263;48.160;11.752;2024-03-08T12:18:12;22.13;;;7.65;;
71456;SDS011;59263;48.160;11.752;2024-03-08T12:20:37;17.85;;;7.90;;
71456;SDS011;59263;48.160;11.752;2024-03-08T12:23:04;18.67;;;7.95;;
71456;SDS011;59263;48.160;11.752;2024-03-08T12:25:31;22.27;;;8.20;;
71456;SDS011;59263;48.160;11.752;2024-03-08T12:27:56;21.33;;;8.10;;
71456;SDS011;59263;48.160;11.752;2024-03-08T12:30:26;21.20;;;7.93;;
71456;SDS011;59263;48.160;11.752;2024-03-08T12:32:55;19.37;;;7.73;;
71456;SDS011;59263;48.160;11.752;2024-03-08T12:35:24;19.83;;;7.38;;
71456;SDS011;59263;48.160;11.752;2024-03-08T12:37:51;16.48;;;6.60;;
71456;SDS011;59263;48.160;11.752;2024-03-08T12:40:18;16.90;;;6.85;;
71456;SDS011;59263;48.160;11.752;2024-03-08T12:42:44;18.77;;;7.30;;
71456;SDS011;59263;48.160;11.752;2024-03-08T12:45:10;18.15;;;7.22;;
71456;SDS011;59263;48.160;11.752;2024-03-08T12:47:35;18.23;;;7.00;;
71456;SDS011;59263;48.160;11.752;2024-03-08T12:50:01;18.20;;;7.20;;
71456;SDS011;59263;48.160;11.752;2024-03-08T12:52:26;18.75;;;7.18;;
71456;SDS011;59263;48.160;11.752;2024-03-08T12:54:51;18.70;;;7.37;;
71456;SDS011;59263;48.160;11.752;2024-03-08T12:57:17;18.90;;;7.40;;
71456;SDS011;59263;48.160;11.752;2024-03-08T12:59:42;17.30;;;7.13;;
71456;SDS011;59263;48.160;11.752;2024-03-08T13:02:07;18.27;;;7.27;;
71456;SDS011;59263;48.160;11.752;2024-03-08T13:04:36;17.75;;;7.10;;
71456;SDS011;59263;48.160;11.752;2024-03-08T13:07:01;16.57;;;7.13;;
71456;SDS011;59263;48.160;11.752;2024-03-08T13:09:27;19.15;;;7.38;;
71456;SDS011;59263;48.160;11.752;2024-03-08T13:11:52;19.63;;;7.07;;
71456;SDS011;59263;48.160;11.752;2024-03-08T13:14:20;16.05;;;7.00;;
71456;SDS011;59263;48.160;11.752;2024-03-08T13:16:45;15.63;;;6.63;;
71456;SDS011;59263;48.160;11.752;2024-03-08T13:19:13;18.23;;;7.28;;
71456;SDS011;59263;48.160;11.752;2024-03-08T13:21:39;19.23;;;7.05;;
71456;SDS011;59263;48.160;11.752;2024-03-08T13:24:04;15.17;;;6.70;;
71456;SDS011;59263;48.160;11.752;2024-03-08T13:26:30;18.43;;;7.43;;
71456;SDS011;59263;48.160;11.752;2024-03-08T13:28:58;20.10;;;7.30;;
71456;SDS011;59263;48.160;11.752;2024-03-08T13:31:23;17.07;;;7.20;;
71456;SDS011;59263;48.160;11.752;2024-03-08T13:33:48;16.38;;;6.70;;
71456;SDS011;59263;48.160;11.752;2024-03-08T13:36:14;18.13;;;7.07;;
71456;SDS011;59263;48.160;11.752;2024-03-08T13:38:43;16.48;;;7.00;;
71456;SDS011;59263;48.160;11.752;2024-03-08T13:41:09;17.02;;;6.88;;
71456;SDS011;59263;48.160;11.752;2024-03-08T13:43:34;17.27;;;6.90;;
71456;SDS011;59263;48.160;11.752;2024-03-08T13:46:01;15.77;;;7.22;;
71456;SDS011;59263;48.160;11.752;2024-03-08T13:48:27;18.95;;;7.93;;
71456;SDS011;59263;48.160;11.752;2024-03-08T13:50:52;19.87;;;8.13;;
71456;SDS011;59263;48.160;11.752;2024-03-08T13:53:17;16.93;;;7.40;;
71456;SDS011;59263;48.160;11.752;2024-03-08T13:55:43;16.27;;;7.43;;
71456;SDS011;59263;48.160;11.752;2024-03-08T13:58:09;19.73;;;8.30;;
71456;SDS011;59263;48.160;11.752;2024-03-08T14:00:35;17.83;;;8.10;;
71456;SDS011;59263;48.160;11.752;2024-03-08T14:03:01;19.60;;;8.30;;
71456;SDS011;59263;48.160;11.752;2024-03-08T14:05:30;18.58;;;8.30;;
71456;SDS011;59263;48.160;11.752;2024-03-08T14:07:59;18.92;;;8.40;;
71456;SDS011;59263;48.160;11.752;2024-03-08T14:10:26;17.47;;;7.70;;
71456;SDS011;59263;48.160;11.752;2024-03-08T14:12:52;16.52;;;7.43;;
71456;SDS011;59263;48.160;11.752;2024-03-08T14:15:17;14.37;;;6.83;;
71456;SDS011;59263;48.160;11.752;2024-03-08T14:17:42;17.63;;;7.30;;